sensor_id;sensor_type;location;lat;lon;timestamp;P1;durP1;ratioP1;P2;durP2;ratioP2
7142;SDS011;3613;48.902;9.204;2023-05-24T00:01:56;5.37;;;3.67;;
7142;SDS011;3613;48.902;9.204;2023-05-24T00:04:22;5.50;;;4.00;;
7142;SDS011;3613;48.902;9.204;2023-05-24T00:06:49;5.43;;;4.00;;
7142;SDS011;3613;48.902;9.204;2023-05-24T00:09:15;6.27;;;3.93;;
7142;SDS011;3613;48.902;9.204;2023-05-24T00:11:41;5.77;;;3.70;;
7142;SDS011;3613;48.902;9.204;2023-05-24T00:14:10;5.77;;;3.70;;
7142;SDS011;3613;48.902;9.204;2023-05-24T00:16:35;5.47;;;3.83;;
7142;SDS011;3613;48.902;9.204;2023-05-24T00:19:01;5.70;;;3.80;;
7142;SDS011;3613;48.902;9.204;2023-05-24T00:21:27;5.00;;;3.83;;
7142;SDS011;3613;48.902;9.204;2023-05-24T00:23:53;7.47;;;4.47;;
7142;SDS011;3613;48.902;9.204;2023-05-24T00:26:19;6.00;;;3.97;;
7142;SDS011;3613;48.902;9.204;2023-05-24T00:28:45;6.10;;;3.93;;
7142;SDS011;3613;48.902;9.204;2023-05-24T00:31:11;4.40;;;3.40;;
7142;SDS011;3613;48.902;9.204;2023-05-24T00:33:37;6.13;;;4.23;;
7142;SDS011;3613;48.902;9.204;2023-05-24T00:36:03;8.40;;;4.23;;
7142;SDS011;3613;48.902;9.204;2023-05-24T00:38:29;4.83;;;3.73;;
7142;SDS011;3613;48.902;9.204;2023-05-24T00:40:54;6.17;;;4.40;;
7142;SDS011;3613;48.902;9.204;2023-05-24T00:43:21;8.60;;;4.30;;
7142;SDS011;3613;48.902;9.204;2023-05-24T00:45:59;6.87;;;4.10;;
7142;SDS011;3613;48.902;9.204;2023-05-24T00:48:42;6.03;;;4.10;;
7142;SDS011;3613;48.902;9.204;2023-05-24T00:51:09;7.33;;;3.93;;
7142;SDS011;3613;48.902;9.204;2023-05-24T00:53:36;6.50;;;3.90;;
7142;SDS011;3613;48.902;9.204;2023-05-24T00:56:02;7.60;;;4.17;;
7142;SDS011;3613;48.902;9.204;2023-05-24T00:58:29;6.03;;;4.27;;
7142;SDS011;3613;48.902;9.204;2023-05-24T01:00:59;7.13;;;4.03;;
7142;SDS011;3613;48.902;9.204;2023-05-24T01:03:25;5.60;;;4.27;;
7142;SDS011;3613;48.902;9.204;2023-05-24T01:05:58;8.63;;;4.10;;
7142;SDS011;3613;48.902;9.204;2023-05-24T01:19:26;7.37;;;4.43;;
7142;SDS011;3613;48.902;9.204;2023-05-24T01:25:03;7.07;;;5.00;;
7142;SDS011;3613;48.902;9.204;2023-05-24T01:27:59;6.87;;;4.13;;
7142;SDS011;3613;48.902;9.204;2023-05-24T01:30:30;7.73;;;4.40;;
7142;SDS011;3613;48.902;9.204;2023-05-24T01:32:57;8.10;;;4.40;;
7142;SDS011;3613;48.902;9.204;2023-05-24T01:35:23;7.60;;;4.13;;
7142;SDS011;3613;48.902;9.204;2023-05-24T01:37:49;5.97;;;4.10;;
7142;SDS011;3613;48.902;9.204;2023-05-24T01:40:15;7.77;;;3.70;;
7142;SDS011;3613;48.902;9.204;2023-05-24T01:42:44;7.17;;;4.10;;
7142;SDS011;3613;48.902;9.204;2023-05-24T01:45:28;9.87;;;4.47;;
7142;SDS011;3613;48.902;9.204;2023-05-24T01:48:16;10.47;;;3.93;;
7142;SDS011;3613;48.902;9.204;2023-05-24T01:50:51;6.77;;;4.20;;
7142;SDS011;3613;48.902;9.204;2023-05-24T01:53:23;7.20;;;3.90;;
7142;SDS011;3613;48.902;9.204;2023-05-24T01:55:55;8.10;;;4.47;;
7142;SDS011;3613;48.902;9.204;2023-05-24T01:58:22;7.73;;;4.30;;
7142;SDS011;3613;48.902;9.204;2023-05-24T02:00:50;7.57;;;4.23;;
7142;SDS011;3613;48.902;9.204;2023-05-24T02:03:21;10.57;;;4.70;;
7142;SDS011;3613;48.902;9.204;2023-05-24T02:05:47;6.07;;;3.90;;
7142;SDS011;3613;48.902;9.204;2023-05-24T02:08:13;7.13;;;4.10;;
7142;SDS011;3613;48.902;9.204;2023-05-24T02:10:39;9.57;;;4.47;;
7142;SDS011;3613;48.902;9.204;2023-05-24T02:13:08;7.77;;;4.37;;
7142;SDS011;3613;48.902;9.204;2023-05-24T02:15:34;7.20;;;3.93;;
7142;SDS011;3613;48.902;9.204;2023-05-24T02:18:00;9.83;;;4.43;;
7142;SDS011;3613;48.902;9.204;2023-05-24T02:20:31;8.20;;;4.17;;
7142;SDS011;3613;48.902;9.204;2023-05-24T02:23:01;7.77;;;4.30;;
7142;SDS011;3613;48.902;9.204;2023-05-24T02:25:28;8.07;;;4.60;;
7142;SDS011;3613;48.902;9.204;2023-05-24T02:27:54;10.47;;;4.90;;
7142;SDS011;3613;48.902;9.204;2023-05-24T02:30:21;8.60;;;4.47;;
7142;SDS011;3613;48.902;9.204;2023-05-24T02:32:47;9.73;;;4.30;;
7142;SDS011;3613;48.902;9.204;2023-05-24T02:35:13;8.20;;;4.33;;
7142;SDS011;3613;48.902;9.204;2023-05-24T02:37:41;10.33;;;4.83;;
7142;SDS011;3613;48.902;9.204;2023-05-24T02:40:07;6.17;;;4.30;;
7142;SDS011;3613;48.902;9.204;2023-05-24T02:42:35;8.03;;;4.27;;
7142;SDS011;3613;48.902;9.204;2023-05-24T02:45:03;10.30;;;4.63;;
7142;SDS011;3613;48.902;9.204;2023-05-24T02:47:32;8.40;;;4.20;;
7142;SDS011;3613;48.902;9.204;2023-05-24T02:49:57;5.87;;;3.70;;
7142;SDS011;3613;48.902;9.204;2023-05-24T02:52:25;9.93;;;5.03;;
7142;SDS011;3613;48.902;9.204;2023-05-24T02:54:55;8.60;;;4.50;;
7142;SDS011;3613;48.902;9.204;2023-05-24T02:57:21;7.50;;;3.93;;
7142;SDS011;3613;48.902;9.204;2023-05-24T02:59:48;11.83;;;4.53;;
7142;SDS011;3613;48.902;9.204;2023-05-24T03:02:16;7.40;;;4.13;;
7142;SDS011;3613;48.902;9.204;2023-05-24T03:04:43;7.80;;;4.60;;
7142;SDS011;3613;48.902;9.204;2023-05-24T03:07:11;8.63;;;4.30;;
7142;SDS011;3613;48.902;9.204;2023-05-24T03:09:38;9.23;;;4.33;;
7142;SDS011;3613;48.902;9.204;2023-05-24T03:12:04;5.27;;;4.07;;
7142;SDS011;3613;48.902;9.204;2023-05-24T03:14:30;10.77;;;4.50;;
7142;SDS011;3613;48.902;9.204;2023-05-24T03:16:58;10.50;;;4.40;;
7142;SDS011;3613;48.902;9.204;2023-05-24T03:19:24;7.37;;;4.33;;
7142;SDS011;3613;48.902;9.204;2023-05-24T03:21:50;9.00;;;4.60;;
7142;SDS011;3613;48.902;9.204;2023-05-24T03:24:16;10.13;;;5.17;;
7142;SDS011;3613;48.902;9.204;2023-05-24T03:26:42;7.97;;;4.63;;
7142;SDS011;3613;48.902;9.204;2023-05-24T03:29:08;9.47;;;4.80;;
7142;SDS011;3613;48.902;9.204;2023-05-24T03:31:36;8.57;;;4.30;;
7142;SDS011;3613;48.902;9.204;2023-05-24T03:34:04;10.43;;;4.53;;
7142;SDS011;3613;48.902;9.204;2023-05-24T03:36:30;10.73;;;4.53;;
7142;SDS011;3613;48.902;9.204;2023-05-24T03:38:56;10.73;;;4.50;;
7142;SDS011;3613;48.902;9.204;2023-05-24T03:41:23;9.53;;;4.63;;
7142;SDS011;3613;48.902;9.204;2023-05-24T03:43:50;13.00;;;4.47;;
7142;SDS011;3613;48.902;9.204;2023-05-24T03:46:16;7.87;;;5.07;;
7142;SDS011;3613;48.902;9.204;2023-05-24T03:48:42;6.73;;;4.40;;
7142;SDS011;3613;48.902;9.204;2023-05-24T03:51:10;9.87;;;5.00;;
7142;SDS011;3613;48.902;9.204;2023-05-24T03:53:39;8.60;;;5.27;;
7142;SDS011;3613;48.902;9.204;2023-05-24T03:56:04;9.97;;;4.80;;
7142;SDS011;3613;48.902;9.204;2023-05-24T03:58:30;9.97;;;4.33;;
7142;SDS011;3613;48.902;9.204;2023-05-24T04:00:56;10.73;;;4.67;;
7142;SDS011;3613;48.902;9.204;2023-05-24T04:03:21;11.40;;;4.80;;
7142;SDS011;3613;48.902;9.204;2023-05-24T04:05:49;11.87;;;5.30;;
7142;SDS011;3613;48.902;9.204;2023-05-24T04:08:16;12.23;;;5.40;;
7142;SDS011;3613;48.902;9.204;2023-05-24T04:10:44;10.03;;;4.73;;
7142;SDS011;3613;48.902;9.204;2023-05-24T04:13:10;10.27;;;5.03;;
7142;SDS011;3613;48.902;9.204;2023-05-24T04:15:38;7.40;;;4.80;;
7142;SDS011;3613;48.902;9.204;2023-05-24T04:18:04;9.73;;;4.93;;
7142;SDS011;3613;48.902;9.204;2023-05-24T04:20:30;10.57;;;4.83;;
7142;SDS011;3613;48.902;9.204;2023-05-24T04:22:57;10.50;;;5.00;;
7142;SDS011;3613;48.902;9.204;2023-05-24T04:25:27;7.93;;;4.60;;
7142;SDS011;3613;48.902;9.204;2023-05-24T04:27:56;10.90;;;5.03;;
7142;SDS011;3613;48.902;9.204;2023-05-24T04:30:21;8.60;;;4.73;;
7142;SDS011;3613;48.902;9.204;2023-05-24T04:32:47;11.70;;;4.40;;
7142;SDS011;3613;48.902;9.204;2023-05-24T04:35:13;9.27;;;4.97;;
7142;SDS011;3613;48.902;9.204;2023-05-24T04:37:40;9.97;;;4.73;;
7142;SDS011;3613;48.902;9.204;2023-05-24T04:40:06;9.13;;;5.00;;
7142;SDS011;3613;48.902;9.204;2023-05-24T04:42:33;9.17;;;4.87;;
7142;SDS011;3613;48.902;9.204;2023-05-24T04:45:02;11.77;;;4.93;;
7142;SDS011;3613;48.902;9.204;2023-05-24T04:47:28;9.10;;;4.97;;
7142;SDS011;3613;48.902;9.204;2023-05-24T04:49:54;10.77;;;5.30;;
7142;SDS011;3613;48.902;9.204;2023-05-24T04:52:22;9.47;;;4.53;;
7142;SDS011;3613;48.902;9.204;2023-05-24T04:54:48;10.97;;;4.77;;
7142;SDS011;3613;48.902;9.204;2023-05-24T04:57:13;8.40;;;5.00;;
7142;SDS011;3613;48.902;9.204;2023-05-24T04:59:39;10.30;;;4.33;;
7142;SDS011;3613;48.902;9.204;2023-05-24T05:02:05;8.27;;;4.73;;
7142;SDS011;3613;48.902;9.204;2023-05-24T05:04:31;11.00;;;4.93;;
7142;SDS011;3613;48.902;9.204;2023-05-24T05:06:57;9.83;;;4.53;;
7142;SDS011;3613;48.902;9.204;2023-05-24T05:09:25;8.50;;;4.90;;
7142;SDS011;3613;48.902;9.204;2023-05-24T05:11:53;10.40;;;4.20;;
7142;SDS011;3613;48.902;9.204;2023-05-24T05:14:22;8.13;;;4.30;;
7142;SDS011;3613;48.902;9.204;2023-05-24T05:16:50;10.23;;;5.20;;
7142;SDS011;3613;48.902;9.204;2023-05-24T05:19:15;9.97;;;4.90;;
7142;SDS011;3613;48.902;9.204;2023-05-24T05:21:41;8.87;;;4.57;;
7142;SDS011;3613;48.902;9.204;2023-05-24T05:24:07;10.00;;;4.20;;
7142;SDS011;3613;48.902;9.204;2023-05-24T05:26:33;12.93;;;4.53;;
7142;SDS011;3613;48.902;9.204;2023-05-24T05:28:59;9.73;;;4.60;;
7142;SDS011;3613;48.902;9.204;2023-05-24T05:31:25;7.03;;;4.87;;
7142;SDS011;3613;48.902;9.204;2023-05-24T05:33:51;14.40;;;5.10;;
7142;SDS011;3613;48.902;9.204;2023-05-24T05:36:17;8.97;;;4.33;;
7142;SDS011;3613;48.902;9.204;2023-05-24T05:38:43;14.67;;;4.80;;
7142;SDS011;3613;48.902;9.204;2023-05-24T05:41:09;7.40;;;4.03;;
7142;SDS011;3613;48.902;9.204;2023-05-24T05:43:35;11.40;;;4.53;;
7142;SDS011;3613;48.902;9.204;2023-05-24T05:46:01;8.90;;;4.83;;
7142;SDS011;3613;48.902;9.204;2023-05-24T05:48:26;12.67;;;5.00;;
7142;SDS011;3613;48.902;9.204;2023-05-24T05:50:52;6.10;;;4.47;;
7142;SDS011;3613;48.902;9.204;2023-05-24T05:53:21;8.97;;;4.73;;
7142;SDS011;3613;48.902;9.204;2023-05-24T05:55:47;9.17;;;4.47;;
7142;SDS011;3613;48.902;9.204;2023-05-24T05:58:12;8.57;;;4.00;;
7142;SDS011;3613;48.902;9.204;2023-05-24T06:00:41;11.07;;;5.07;;
7142;SDS011;3613;48.902;9.204;2023-05-24T06:03:07;12.43;;;4.73;;
7142;SDS011;3613;48.902;9.204;2023-05-24T06:05:32;6.87;;;4.17;;
7142;SDS011;3613;48.902;9.204;2023-05-24T06:07:58;10.23;;;5.33;;
7142;SDS011;3613;48.902;9.204;2023-05-24T06:10:24;11.40;;;4.63;;
7142;SDS011;3613;48.902;9.204;2023-05-24T06:12:51;8.37;;;4.17;;
7142;SDS011;3613;48.902;9.204;2023-05-24T06:15:17;7.53;;;4.13;;
7142;SDS011;3613;48.902;9.204;2023-05-24T06:17:46;14.07;;;4.87;;
7142;SDS011;3613;48.902;9.204;2023-05-24T06:20:12;9.77;;;4.87;;
7142;SDS011;3613;48.902;9.204;2023-05-24T06:22:40;9.70;;;4.83;;
7142;SDS011;3613;48.902;9.204;2023-05-24T06:25:09;8.90;;;4.70;;
7142;SDS011;3613;48.902;9.204;2023-05-24T06:27:38;10.73;;;4.37;;
7142;SDS011;3613;48.902;9.204;2023-05-24T06:30:04;9.37;;;4.57;;
7142;SDS011;3613;48.902;9.204;2023-05-24T06:32:31;9.10;;;4.53;;
7142;SDS011;3613;48.902;9.204;2023-05-24T06:34:59;13.53;;;4.37;;
7142;SDS011;3613;48.902;9.204;2023-05-24T06:37:24;8.30;;;4.73;;
7142;SDS011;3613;48.902;9.204;2023-05-24T06:39:50;10.63;;;4.63;;
7142;SDS011;3613;48.902;9.204;2023-05-24T06:42:16;10.43;;;4.20;;
7142;SDS011;3613;48.902;9.204;2023-05-24T06:44:42;7.70;;;4.40;;
7142;SDS011;3613;48.902;9.204;2023-05-24T06:47:08;10.23;;;4.70;;
7142;SDS011;3613;48.902;9.204;2023-05-24T06:49:34;8.83;;;4.03;;
7142;SDS011;3613;48.902;9.204;2023-05-24T06:52:02;12.27;;;4.17;;
7142;SDS011;3613;48.902;9.204;2023-05-24T06:54:31;10.20;;;4.50;;
7142;SDS011;3613;48.902;9.204;2023-05-24T06:56:57;10.07;;;4.90;;
7142;SDS011;3613;48.902;9.204;2023-05-24T06:59:24;12.27;;;4.53;;
7142;SDS011;3613;48.902;9.204;2023-05-24T07:01:49;11.73;;;4.67;;
7142;SDS011;3613;48.902;9.204;2023-05-24T07:04:22;12.57;;;5.23;;
7142;SDS011;3613;48.902;9.204;2023-05-24T07:06:52;10.53;;;4.87;;
7142;SDS011;3613;48.902;9.204;2023-05-24T07:09:18;11.37;;;4.53;;
7142;SDS011;3613;48.902;9.204;2023-05-24T07:11:44;9.63;;;4.27;;
7142;SDS011;3613;48.902;9.204;2023-05-24T07:14:09;13.23;;;4.83;;
7142;SDS011;3613;48.902;9.204;2023-05-24T07:16:37;13.70;;;4.27;;
7142;SDS011;3613;48.902;9.204;2023-05-24T07:19:03;10.67;;;4.60;;
7142;SDS011;3613;48.902;9.204;2023-05-24T07:21:31;12.33;;;4.50;;
7142;SDS011;3613;48.902;9.204;2023-05-24T07:23:58;11.80;;;4.53;;
7142;SDS011;3613;48.902;9.204;2023-05-24T07:26:27;8.93;;;4.67;;
7142;SDS011;3613;48.902;9.204;2023-05-24T07:28:53;10.67;;;4.43;;
7142;SDS011;3613;48.902;9.204;2023-05-24T07:31:19;8.90;;;4.43;;
7142;SDS011;3613;48.902;9.204;2023-05-24T07:33:45;12.83;;;4.77;;
7142;SDS011;3613;48.902;9.204;2023-05-24T07:36:13;7.70;;;4.20;;
7142;SDS011;3613;48.902;9.204;2023-05-24T07:38:42;6.80;;;4.30;;
7142;SDS011;3613;48.902;9.204;2023-05-24T07:41:08;10.03;;;5.00;;
7142;SDS011;3613;48.902;9.204;2023-05-24T07:43:34;9.07;;;4.50;;
7142;SDS011;3613;48.902;9.204;2023-05-24T07:46:02;10.43;;;4.73;;
7142;SDS011;3613;48.902;9.204;2023-05-24T07:48:34;6.97;;;3.80;;
7142;SDS011;3613;48.902;9.204;2023-05-24T07:50:59;10.20;;;4.60;;
7142;SDS011;3613;48.902;9.204;2023-05-24T07:53:25;13.17;;;4.70;;
7142;SDS011;3613;48.902;9.204;2023-05-24T07:55:51;9.33;;;4.73;;
7142;SDS011;3613;48.902;9.204;2023-05-24T07:58:17;8.93;;;4.20;;
7142;SDS011;3613;48.902;9.204;2023-05-24T08:00:43;12.47;;;4.73;;
7142;SDS011;3613;48.902;9.204;2023-05-24T08:03:11;11.83;;;4.83;;
7142;SDS011;3613;48.902;9.204;2023-05-24T08:05:38;10.10;;;4.43;;
7142;SDS011;3613;48.902;9.204;2023-05-24T08:08:06;11.67;;;4.83;;
7142;SDS011;3613;48.902;9.204;2023-05-24T08:10:33;10.47;;;4.63;;
7142;SDS011;3613;48.902;9.204;2023-05-24T08:12:59;7.87;;;4.40;;
7142;SDS011;3613;48.902;9.204;2023-05-24T08:15:25;9.20;;;4.70;;
7142;SDS011;3613;48.902;9.204;2023-05-24T08:17:52;13.57;;;5.27;;
7142;SDS011;3613;48.902;9.204;2023-05-24T08:20:18;9.27;;;4.70;;
7142;SDS011;3613;48.902;9.204;2023-05-24T08:22:44;12.27;;;4.63;;
7142;SDS011;3613;48.902;9.204;2023-05-24T08:25:12;12.80;;;4.40;;
7142;SDS011;3613;48.902;9.204;2023-05-24T08:27:38;12.37;;;4.53;;
7142;SDS011;3613;48.902;9.204;2023-05-24T08:30:04;11.83;;;4.70;;
7142;SDS011;3613;48.902;9.204;2023-05-24T08:32:33;9.40;;;4.40;;
7142;SDS011;3613;48.902;9.204;2023-05-24T08:34:59;9.53;;;4.40;;
7142;SDS011;3613;48.902;9.204;2023-05-24T08:37:25;10.97;;;4.70;;
7142;SDS011;3613;48.902;9.204;2023-05-24T08:39:52;9.30;;;4.93;;
7142;SDS011;3613;48.902;9.204;2023-05-24T08:42:18;11.00;;;4.60;;
7142;SDS011;3613;48.902;9.204;2023-05-24T08:44:51;11.17;;;4.60;;
7142;SDS011;3613;48.902;9.204;2023-05-24T08:47:24;10.90;;;4.70;;
7142;SDS011;3613;48.902;9.204;2023-05-24T08:49:52;11.03;;;4.43;;
7142;SDS011;3613;48.902;9.204;2023-05-24T08:52:23;7.70;;;4.93;;
7142;SDS011;3613;48.902;9.204;2023-05-24T08:54:50;11.43;;;4.77;;
7142;SDS011;3613;48.902;9.204;2023-05-24T08:57:19;13.00;;;5.63;;
7142;SDS011;3613;48.902;9.204;2023-05-24T08:59:46;9.73;;;5.40;;
7142;SDS011;3613;48.902;9.204;2023-05-24T09:02:12;11.33;;;5.33;;
7142;SDS011;3613;48.902;9.204;2023-05-24T09:04:41;11.47;;;5.00;;
7142;SDS011;3613;48.902;9.204;2023-05-24T09:07:08;9.83;;;4.73;;
7142;SDS011;3613;48.902;9.204;2023-05-24T09:09:36;11.07;;;4.90;;
7142;SDS011;3613;48.902;9.204;2023-05-24T09:12:08;11.60;;;4.90;;
7142;SDS011;3613;48.902;9.204;2023-05-24T09:14:39;9.77;;;4.93;;
7142;SDS011;3613;48.902;9.204;2023-05-24T09:17:12;12.70;;;5.20;;
7142;SDS011;3613;48.902;9.204;2023-05-24T09:19:42;10.97;;;5.63;;
7142;SDS011;3613;48.902;9.204;2023-05-24T09:22:13;7.93;;;4.63;;
7142;SDS011;3613;48.902;9.204;2023-05-24T09:24:46;9.73;;;5.27;;
7142;SDS011;3613;48.902;9.204;2023-05-24T09:27:13;8.70;;;4.60;;
7142;SDS011;3613;48.902;9.204;2023-05-24T09:29:41;10.53;;;5.20;;
7142;SDS011;3613;48.902;9.204;2023-05-24T09:32:12;9.13;;;4.80;;
7142;SDS011;3613;48.902;9.204;2023-05-24T09:34:39;14.13;;;4.70;;
7142;SDS011;3613;48.902;9.204;2023-05-24T09:37:09;10.00;;;5.47;;
7142;SDS011;3613;48.902;9.204;2023-05-24T09:39:38;13.00;;;5.27;;
7142;SDS011;3613;48.902;9.204;2023-05-24T09:42:06;12.60;;;4.70;;
7142;SDS011;3613;48.902;9.204;2023-05-24T09:44:31;10.23;;;5.13;;
7142;SDS011;3613;48.902;9.204;2023-05-24T09:47:03;12.00;;;4.90;;
7142;SDS011;3613;48.902;9.204;2023-05-24T09:49:29;9.50;;;4.50;;
7142;SDS011;3613;48.902;9.204;2023-05-24T09:51:55;9.90;;;5.03;;
7142;SDS011;3613;48.902;9.204;2023-05-24T09:54:22;9.10;;;5.30;;
7142;SDS011;3613;48.902;9.204;2023-05-24T09:56:50;10.80;;;5.27;;
7142;SDS011;3613;48.902;9.204;2023-05-24T09:59:16;10.67;;;4.87;;
7142;SDS011;3613;48.902;9.204;2023-05-24T10:01:42;7.90;;;4.97;;
7142;SDS011;3613;48.902;9.204;2023-05-24T10:04:09;9.17;;;5.70;;
7142;SDS011;3613;48.902;9.204;2023-05-24T10:06:38;9.20;;;4.57;;
7142;SDS011;3613;48.902;9.204;2023-05-24T10:09:07;10.17;;;5.13;;
7142;SDS011;3613;48.902;9.204;2023-05-24T10:11:34;12.03;;;4.70;;
7142;SDS011;3613;48.902;9.204;2023-05-24T10:14:04;11.63;;;5.03;;
7142;SDS011;3613;48.902;9.204;2023-05-24T10:16:32;14.57;;;5.50;;
7142;SDS011;3613;48.902;9.204;2023-05-24T10:18:58;11.10;;;5.10;;
7142;SDS011;3613;48.902;9.204;2023-05-24T10:21:28;11.80;;;5.13;;
7142;SDS011;3613;48.902;9.204;2023-05-24T10:23:57;10.60;;;4.80;;
7142;SDS011;3613;48.902;9.204;2023-05-24T10:26:24;11.57;;;4.80;;
7142;SDS011;3613;48.902;9.204;2023-05-24T10:28:54;11.30;;;5.43;;
7142;SDS011;3613;48.902;9.204;2023-05-24T10:31:30;10.50;;;4.60;;
7142;SDS011;3613;48.902;9.204;2023-05-24T10:34:04;13.70;;;4.60;;
7142;SDS011;3613;48.902;9.204;2023-05-24T10:36:33;12.23;;;5.33;;
7142;SDS011;3613;48.902;9.204;2023-05-24T10:38:59;13.83;;;4.70;;
7142;SDS011;3613;48.902;9.204;2023-05-24T10:41:25;11.53;;;5.20;;
7142;SDS011;3613;48.902;9.204;2023-05-24T10:43:51;12.90;;;4.73;;
7142;SDS011;3613;48.902;9.204;2023-05-24T10:46:18;10.37;;;4.63;;
7142;SDS011;3613;48.902;9.204;2023-05-24T10:49:00;14.47;;;4.90;;
7142;SDS011;3613;48.902;9.204;2023-05-24T10:51:36;10.17;;;4.20;;
7142;SDS011;3613;48.902;9.204;2023-05-24T10:54:12;10.50;;;4.87;;
7142;SDS011;3613;48.902;9.204;2023-05-24T10:56:41;8.70;;;4.47;;
7142;SDS011;3613;48.902;9.204;2023-05-24T10:59:27;8.53;;;4.43;;
7142;SDS011;3613;48.902;9.204;2023-05-24T11:02:01;7.67;;;4.40;;
7142;SDS011;3613;48.902;9.204;2023-05-24T11:04:35;11.10;;;4.80;;
7142;SDS011;3613;48.902;9.204;2023-05-24T11:07:07;9.13;;;4.60;;
7142;SDS011;3613;48.902;9.204;2023-05-24T11:09:35;12.03;;;4.60;;
7142;SDS011;3613;48.902;9.204;2023-05-24T11:12:10;7.73;;;4.30;;
7142;SDS011;3613;48.902;9.204;2023-05-24T11:14:46;9.03;;;4.47;;
7142;SDS011;3613;48.902;9.204;2023-05-24T11:17:17;8.73;;;4.73;;
7142;SDS011;3613;48.902;9.204;2023-05-24T11:19:46;7.70;;;4.53;;
7142;SDS011;3613;48.902;9.204;2023-05-24T11:22:14;8.87;;;4.27;;
7142;SDS011;3613;48.902;9.204;2023-05-24T11:24:43;12.53;;;4.50;;
7142;SDS011;3613;48.902;9.204;2023-05-24T11:27:09;6.53;;;3.93;;
7142;SDS011;3613;48.902;9.204;2023-05-24T11:29:42;7.17;;;4.13;;
7142;SDS011;3613;48.902;9.204;2023-05-24T11:32:15;9.07;;;3.80;;
7142;SDS011;3613;48.902;9.204;2023-05-24T11:34:42;11.43;;;4.47;;
7142;SDS011;3613;48.902;9.204;2023-05-24T11:37:09;8.43;;;3.90;;
7142;SDS011;3613;48.902;9.204;2023-05-24T11:39:36;8.33;;;4.40;;
7142;SDS011;3613;48.902;9.204;2023-05-24T11:42:03;9.20;;;3.90;;
7142;SDS011;3613;48.902;9.204;2023-05-24T11:44:32;9.10;;;3.90;;
7142;SDS011;3613;48.902;9.204;2023-05-24T11:47:02;9.37;;;4.53;;
7142;SDS011;3613;48.902;9.204;2023-05-24T11:49:31;9.77;;;4.23;;
7142;SDS011;3613;48.902;9.204;2023-05-24T11:52:01;10.30;;;4.10;;
7142;SDS011;3613;48.902;9.204;2023-05-24T11:54:27;7.33;;;3.90;;
7142;SDS011;3613;48.902;9.204;2023-05-24T11:56:53;9.40;;;4.03;;
7142;SDS011;3613;48.902;9.204;2023-05-24T11:59:23;10.27;;;4.57;;
7142;SDS011;3613;48.902;9.204;2023-05-24T12:02:03;9.77;;;4.17;;
7142;SDS011;3613;48.902;9.204;2023-05-24T12:04:30;10.30;;;4.23;;
7142;SDS011;3613;48.902;9.204;2023-05-24T12:06:57;10.03;;;4.60;;
7142;SDS011;3613;48.902;9.204;2023-05-24T12:09:23;10.70;;;4.80;;
7142;SDS011;3613;48.902;9.204;2023-05-24T12:11:50;8.83;;;4.17;;
7142;SDS011;3613;48.902;9.204;2023-05-24T12:14:21;10.37;;;3.87;;
7142;SDS011;3613;48.902;9.204;2023-05-24T12:16:52;7.80;;;4.20;;
7142;SDS011;3613;48.902;9.204;2023-05-24T12:19:21;9.13;;;4.00;;
7142;SDS011;3613;48.902;9.204;2023-05-24T12:21:49;9.97;;;4.47;;
7142;SDS011;3613;48.902;9.204;2023-05-24T12:24:16;8.07;;;4.10;;
7142;SDS011;3613;48.902;9.204;2023-05-24T12:26:47;7.93;;;4.07;;
7142;SDS011;3613;48.902;9.204;2023-05-24T12:29:13;8.90;;;4.07;;
7142;SDS011;3613;48.902;9.204;2023-05-24T12:31:40;7.80;;;4.27;;
7142;SDS011;3613;48.902;9.204;2023-05-24T12:36:44;8.13;;;4.37;;
7142;SDS011;3613;48.902;9.204;2023-05-24T12:41:55;7.83;;;3.77;;
7142;SDS011;3613;48.902;9.204;2023-05-24T12:44:26;8.10;;;3.50;;
7142;SDS011;3613;48.902;9.204;2023-05-24T12:46:56;9.10;;;3.57;;
7142;SDS011;3613;48.902;9.204;2023-05-24T12:49:23;9.27;;;3.60;;
7142;SDS011;3613;48.902;9.204;2023-05-24T12:51:49;7.00;;;3.30;;
7142;SDS011;3613;48.902;9.204;2023-05-24T12:54:21;7.77;;;3.90;;
7142;SDS011;3613;48.902;9.204;2023-05-24T12:56:48;8.60;;;3.37;;
7142;SDS011;3613;48.902;9.204;2023-05-24T12:59:16;10.03;;;3.57;;
7142;SDS011;3613;48.902;9.204;2023-05-24T13:01:42;7.53;;;3.80;;
7142;SDS011;3613;48.902;9.204;2023-05-24T13:04:10;6.27;;;3.20;;
7142;SDS011;3613;48.902;9.204;2023-05-24T13:06:36;7.87;;;4.03;;
7142;SDS011;3613;48.902;9.204;2023-05-24T13:09:03;7.70;;;3.50;;
7142;SDS011;3613;48.902;9.204;2023-05-24T13:11:30;11.03;;;3.97;;
7142;SDS011;3613;48.902;9.204;2023-05-24T13:13:56;6.20;;;3.10;;
7142;SDS011;3613;48.902;9.204;2023-05-24T13:16:23;7.17;;;3.40;;
7142;SDS011;3613;48.902;9.204;2023-05-24T13:18:50;10.43;;;3.70;;
7142;SDS011;3613;48.902;9.204;2023-05-24T13:21:16;9.30;;;3.70;;
7142;SDS011;3613;48.902;9.204;2023-05-24T13:23:44;7.00;;;3.57;;
7142;SDS011;3613;48.902;9.204;2023-05-24T13:26:12;12.70;;;4.37;;
7142;SDS011;3613;48.902;9.204;2023-05-24T13:28:38;8.70;;;3.63;;
7142;SDS011;3613;48.902;9.204;2023-05-24T13:31:04;6.53;;;3.17;;
7142;SDS011;3613;48.902;9.204;2023-05-24T13:33:30;8.27;;;3.63;;
7142;SDS011;3613;48.902;9.204;2023-05-24T13:35:56;5.40;;;3.13;;
7142;SDS011;3613;48.902;9.204;2023-05-24T13:38:22;6.93;;;3.30;;
7142;SDS011;3613;48.902;9.204;2023-05-24T13:40:48;6.60;;;3.07;;
7142;SDS011;3613;48.902;9.204;2023-05-24T13:43:15;8.13;;;3.20;;
7142;SDS011;3613;48.902;9.204;2023-05-24T13:45:42;7.33;;;2.83;;
7142;SDS011;3613;48.902;9.204;2023-05-24T13:48:08;5.23;;;3.27;;
7142;SDS011;3613;48.902;9.204;2023-05-24T13:50:34;6.70;;;3.43;;
7142;SDS011;3613;48.902;9.204;2023-05-24T13:53:01;7.67;;;3.23;;
7142;SDS011;3613;48.902;9.204;2023-05-24T13:55:27;6.00;;;3.00;;
7142;SDS011;3613;48.902;9.204;2023-05-24T13:57:54;8.93;;;2.90;;
7142;SDS011;3613;48.902;9.204;2023-05-24T14:00:21;7.23;;;2.80;;
7142;SDS011;3613;48.902;9.204;2023-05-24T14:02:48;4.60;;;2.73;;
7142;SDS011;3613;48.902;9.204;2023-05-24T14:05:17;4.33;;;3.07;;
7142;SDS011;3613;48.902;9.204;2023-05-24T14:07:43;7.10;;;3.10;;
7142;SDS011;3613;48.902;9.204;2023-05-24T14:10:09;5.07;;;3.00;;
7142;SDS011;3613;48.902;9.204;2023-05-24T14:12:35;6.13;;;3.10;;
7142;SDS011;3613;48.902;9.204;2023-05-24T14:15:01;5.33;;;3.10;;
7142;SDS011;3613;48.902;9.204;2023-05-24T14:17:29;6.10;;;3.07;;
7142;SDS011;3613;48.902;9.204;2023-05-24T14:19:55;4.63;;;3.10;;
7142;SDS011;3613;48.902;9.204;2023-05-24T14:22:20;8.77;;;3.10;;
7142;SDS011;3613;48.902;9.204;2023-05-24T14:24:48;6.67;;;3.20;;
7142;SDS011;3613;48.902;9.204;2023-05-24T14:27:14;7.80;;;2.87;;
7142;SDS011;3613;48.902;9.204;2023-05-24T14:29:40;5.93;;;2.90;;
7142;SDS011;3613;48.902;9.204;2023-05-24T14:32:08;6.20;;;3.07;;
7142;SDS011;3613;48.902;9.204;2023-05-24T14:34:37;6.97;;;3.20;;
7142;SDS011;3613;48.902;9.204;2023-05-24T14:37:04;9.07;;;3.20;;
7142;SDS011;3613;48.902;9.204;2023-05-24T14:39:31;5.80;;;3.30;;
7142;SDS011;3613;48.902;9.204;2023-05-24T14:41:59;8.50;;;3.13;;
7142;SDS011;3613;48.902;9.204;2023-05-24T14:44:29;7.27;;;3.00;;
7142;SDS011;3613;48.902;9.204;2023-05-24T14:46:55;6.47;;;2.97;;
7142;SDS011;3613;48.902;9.204;2023-05-24T14:49:23;8.07;;;3.20;;
7142;SDS011;3613;48.902;9.204;2023-05-24T14:51:49;8.50;;;2.87;;
7142;SDS011;3613;48.902;9.204;2023-05-24T14:54:17;7.70;;;3.23;;
7142;SDS011;3613;48.902;9.204;2023-05-24T14:56:43;10.17;;;2.97;;
7142;SDS011;3613;48.902;9.204;2023-05-24T14:59:11;5.20;;;2.90;;
7142;SDS011;3613;48.902;9.204;2023-05-24T15:01:37;5.40;;;2.67;;
7142;SDS011;3613;48.902;9.204;2023-05-24T15:04:03;7.50;;;3.13;;
7142;SDS011;3613;48.902;9.204;2023-05-24T15:06:31;6.97;;;3.00;;
7142;SDS011;3613;48.902;9.204;2023-05-24T15:09:01;8.47;;;3.37;;
7142;SDS011;3613;48.902;9.204;2023-05-24T15:11:28;6.20;;;3.00;;
7142;SDS011;3613;48.902;9.204;2023-05-24T15:13:54;8.23;;;3.27;;
7142;SDS011;3613;48.902;9.204;2023-05-24T15:16:26;8.43;;;2.87;;
7142;SDS011;3613;48.902;9.204;2023-05-24T15:18:52;4.57;;;2.80;;
7142;SDS011;3613;48.902;9.204;2023-05-24T15:21:18;9.20;;;2.70;;
7142;SDS011;3613;48.902;9.204;2023-05-24T15:23:45;5.00;;;3.00;;
7142;SDS011;3613;48.902;9.204;2023-05-24T15:26:16;6.77;;;3.17;;
7142;SDS011;3613;48.902;9.204;2023-05-24T15:28:43;5.90;;;2.60;;
7142;SDS011;3613;48.902;9.204;2023-05-24T15:31:09;8.13;;;3.40;;
7142;SDS011;3613;48.902;9.204;2023-05-24T15:33:38;7.23;;;2.90;;